createdAt,value
2018-06-24T00:00:50.353Z,1017.67
2018-06-24T00:01:50.378Z,1017.67
2018-06-24T00:02:50.397Z,1017.69
2018-06-24T00:03:50.416Z,1017.71
2018-06-24T00:04:50.434Z,1017.67
2018-06-24T00:05:50.457Z,1017.63
2018-06-24T00:06:50.474Z,1017.62
2018-06-24T00:07:50.493Z,1017.62
2018-06-24T00:08:50.513Z,1017.63
2018-06-24T00:09:50.537Z,1017.70
2018-06-24T00:10:50.553Z,1017.69
2018-06-24T00:11:50.573Z,1017.74
2018-06-24T00:12:50.591Z,1017.73
2018-06-24T00:13:50.639Z,1017.72
2018-06-24T00:14:50.631Z,1017.72
2018-06-24T00:15:50.654Z,1017.71
2018-06-24T00:16:50.673Z,1017.76
2018-06-24T00:17:50.691Z,1017.76
2018-06-24T00:18:50.712Z,1017.73
2018-06-24T00:19:50.727Z,1017.72
2018-06-24T00:20:50.752Z,1017.72
2018-06-24T00:21:50.775Z,1017.72
2018-06-24T00:22:50.790Z,1017.72
2018-06-24T00:23:50.810Z,1017.72
2018-06-24T00:24:50.826Z,1017.70
2018-06-24T00:25:50.849Z,1017.65
2018-06-24T00:26:50.876Z,1017.64
2018-06-24T00:27:50.886Z,1017.67
2018-06-24T00:28:50.906Z,1017.68
2018-06-24T00:29:50.924Z,1017.63
2018-06-24T00:30:50.952Z,1017.66
2018-06-24T00:31:50.967Z,1017.66
2018-06-24T00:32:51.027Z,1017.64
2018-06-24T00:33:51.003Z,1017.63
2018-06-24T00:34:51.028Z,1017.59
2018-06-24T00:35:51.048Z,1017.66
2018-06-24T00:36:51.069Z,1017.69
2018-06-24T00:37:51.087Z,1017.61
2018-06-24T00:38:51.108Z,1017.61
2018-06-24T00:39:51.124Z,1017.55
2018-06-24T00:40:51.148Z,1017.54
2018-06-24T00:41:51.163Z,1017.51
2018-06-24T00:42:51.185Z,1017.51
2018-06-24T00:43:51.204Z,1017.55
2018-06-24T00:44:51.222Z,1017.52
2018-06-24T00:45:51.244Z,1017.52
2018-06-24T00:46:51.263Z,1017.51
2018-06-24T00:47:51.280Z,1017.52
2018-06-24T00:48:51.301Z,1017.52
2018-06-24T00:49:51.319Z,1017.49
2018-06-24T00:50:51.341Z,1017.45
2018-06-24T00:51:51.359Z,1017.43
2018-06-24T00:52:51.380Z,1017.32
2018-06-24T00:53:51.402Z,1017.28
2018-06-24T00:54:51.421Z,1017.22
2018-06-24T00:55:51.439Z,1017.19
2018-06-24T00:56:51.459Z,1017.15
2018-06-24T00:57:51.479Z,1017.10
2018-06-24T00:58:51.497Z,1017.05
2018-06-24T00:59:51.519Z,1017.07
2018-06-24T01:00:51.541Z,1017.07
2018-06-24T01:01:51.556Z,1017.23
2018-06-24T01:02:51.578Z,1017.26
2018-06-24T01:03:51.597Z,1017.27
2018-06-24T01:04:51.613Z,1017.24
2018-06-24T01:05:51.634Z,1017.22
2018-06-24T01:06:51.657Z,1017.18
2018-06-24T01:07:51.672Z,1017.16
2018-06-24T01:08:51.695Z,1017.15
2018-06-24T01:09:51.717Z,1017.18
2018-06-24T01:10:51.735Z,1017.15
2018-06-24T01:11:51.753Z,1017.16
2018-06-24T01:12:51.772Z,1017.12
2018-06-24T01:13:51.789Z,1017.13
2018-06-24T01:14:51.811Z,1017.15
2018-06-24T01:15:51.834Z,1017.08
2018-06-24T01:16:51.849Z,1017.12
2018-06-24T01:17:51.870Z,1017.11
2018-06-24T01:18:51.887Z,1017.15
2018-06-24T01:19:51.907Z,1017.15
2018-06-24T01:20:51.929Z,1017.14
2018-06-24T01:21:51.950Z,1017.11
2018-06-24T01:22:51.967Z,1017.11
2018-06-24T01:23:51.989Z,1017.07
2018-06-24T01:24:52.007Z,1017.07
2018-06-24T01:25:52.030Z,1017.05
2018-06-24T01:26:52.046Z,1016.97
2018-06-24T01:27:52.063Z,1016.99
2018-06-24T01:28:52.085Z,1017.04
2018-06-24T01:29:52.105Z,1017.02
2018-06-24T01:30:52.121Z,1017.00
2018-06-24T01:31:52.141Z,1016.98
2018-06-24T01:32:52.160Z,1016.99
2018-06-24T01:33:52.180Z,1016.95
2018-06-24T01:34:52.201Z,1016.90
2018-06-24T01:35:52.217Z,1016.86
2018-06-24T01:36:52.240Z,1016.91
2018-06-24T01:37:52.259Z,1016.86
2018-06-24T01:38:52.282Z,1016.83
2018-06-24T01:39:52.295Z,1016.75
2018-06-24T01:40:52.316Z,1016.80
2018-06-24T01:41:52.335Z,1016.72
2018-06-24T01:42:52.355Z,1016.73
2018-06-24T01:43:52.375Z,1016.70
2018-06-24T01:44:52.395Z,1016.75
2018-06-24T01:45:52.412Z,1016.76
2018-06-24T01:46:52.430Z,1016.77
2018-06-24T01:47:52.447Z,1016.71
2018-06-24T01:48:52.467Z,1016.65
2018-06-24T01:49:52.486Z,1016.63
2018-06-24T01:50:52.509Z,1016.64
2018-06-24T01:51:52.529Z,1016.61
2018-06-24T01:52:52.547Z,1016.58
2018-06-24T01:53:52.564Z,1016.57
2018-06-24T02:23:12.621Z,1016.51
2018-06-24T02:24:12.619Z,1016.59
2018-06-24T02:26:05.546Z,1016.61
2018-06-24T02:27:05.528Z,1016.61
2018-06-24T02:28:58.480Z,1016.63
2018-06-24T02:29:58.456Z,1016.62
2018-06-24T02:31:51.374Z,1016.61
2018-06-24T02:32:51.386Z,1016.61
2018-06-24T02:34:44.328Z,1016.57
2018-06-24T02:35:44.312Z,1016.59
2018-06-24T02:37:37.231Z,1016.61
2018-06-24T02:38:37.243Z,1016.65
2018-06-24T02:40:30.186Z,1016.65
2018-06-24T02:41:30.180Z,1016.68
2018-06-24T02:43:23.097Z,1016.60
2018-06-24T02:44:23.110Z,1016.68
2018-06-24T02:46:16.055Z,1016.64
2018-06-24T02:47:16.048Z,1016.63
2018-06-24T02:49:08.966Z,1016.55
2018-06-24T02:50:08.979Z,1016.58
2018-06-24T02:52:01.934Z,1016.57
2018-06-24T02:53:01.912Z,1016.56
2018-06-24T02:54:54.858Z,1016.63
2018-06-24T02:55:54.849Z,1016.65
2018-06-24T02:57:47.790Z,1016.66
2018-06-24T02:58:47.788Z,1016.59
2018-06-24T03:00:40.737Z,1016.60
2018-06-24T03:01:40.729Z,1016.65
2018-06-24T03:03:33.652Z,1016.68
2018-06-24T03:04:33.668Z,1016.64
2018-06-24T03:06:26.614Z,1016.56
2018-06-24T03:07:26.602Z,1016.58
2018-06-24T03:09:19.523Z,1016.57
2018-06-24T03:10:19.540Z,1016.60
2018-06-24T03:12:12.490Z,1016.62
2018-06-24T03:13:12.480Z,1016.62
2018-06-24T03:15:05.426Z,1016.65
2018-06-24T03:16:05.413Z,1016.62
2018-06-24T03:17:58.341Z,1016.57
2018-06-24T03:18:58.352Z,1016.54
2018-06-24T03:20:51.296Z,1016.56
2018-06-24T03:21:51.287Z,1016.55
2018-06-24T03:22:51.306Z,1016.61
2018-06-24T03:23:51.324Z,1016.59
2018-06-24T03:24:51.342Z,1016.59
2018-06-24T03:25:51.363Z,1016.63
2018-06-24T03:26:51.407Z,1016.57
2018-06-24T03:27:51.395Z,1016.57
2018-06-24T03:28:51.417Z,1016.60
2018-06-24T03:29:51.436Z,1016.61
2018-06-24T03:30:51.458Z,1016.61
2018-06-24T03:31:51.472Z,1016.63
2018-06-24T03:32:51.487Z,1016.61
2018-06-24T03:33:51.509Z,1016.66
2018-06-24T03:34:51.528Z,1016.66
2018-06-24T03:35:51.544Z,1016.65
2018-06-24T03:36:51.564Z,1016.69
2018-06-24T03:37:51.582Z,1016.67
2018-06-24T03:38:51.601Z,1016.72
2018-06-24T03:39:51.618Z,1016.71
2018-06-24T03:40:51.638Z,1016.72
2018-06-24T03:41:51.656Z,1016.73
2018-06-24T03:42:51.675Z,1016.78
2018-06-24T03:43:51.692Z,1016.82
2018-06-24T03:44:51.707Z,1016.82
2018-06-24T03:45:51.731Z,1016.82
2018-06-24T03:46:51.748Z,1016.82
2018-06-24T03:47:51.766Z,1016.76
2018-06-24T03:48:51.790Z,1016.70
2018-06-24T03:49:51.804Z,1016.68
2018-06-24T03:50:51.825Z,1016.71
2018-06-24T03:51:51.838Z,1016.77
2018-06-24T03:52:51.857Z,1016.76
2018-06-24T03:53:51.875Z,1016.74
2018-06-24T03:54:51.895Z,1016.80
2018-06-24T03:55:51.912Z,1016.78
2018-06-24T03:56:51.929Z,1016.76
2018-06-24T03:57:51.948Z,1016.77
2018-06-24T03:58:51.975Z,1016.77
2018-06-24T03:59:51.985Z,1016.73
2018-06-24T04:00:52.007Z,1016.77
2018-06-24T04:01:52.025Z,1016.79
2018-06-24T04:02:52.044Z,1016.77
2018-06-24T04:03:52.059Z,1016.79
2018-06-24T04:04:52.165Z,1016.74
2018-06-24T04:05:52.100Z,1016.77
2018-06-24T04:06:52.116Z,1016.75
2018-06-24T04:07:52.132Z,1016.75
2018-06-24T04:08:52.151Z,1016.76
2018-06-24T04:09:52.167Z,1016.74
2018-06-24T04:10:52.187Z,1016.71
2018-06-24T04:11:52.209Z,1016.74
2018-06-24T04:12:52.224Z,1016.68
2018-06-24T04:13:52.243Z,1016.69
2018-06-24T04:14:52.282Z,1016.68
2018-06-24T04:15:52.279Z,1016.69
2018-06-24T04:16:52.299Z,1016.69
2018-06-24T04:17:52.315Z,1016.69
2018-06-24T04:18:52.339Z,1016.72
2018-06-24T04:19:52.353Z,1016.79
2018-06-24T04:20:52.375Z,1016.77
2018-06-24T04:21:52.391Z,1016.78
2018-06-24T04:22:52.410Z,1016.78
2018-06-24T04:23:52.430Z,1016.79
2018-06-24T04:24:52.447Z,1016.80
2018-06-24T04:25:52.465Z,1016.82
2018-06-24T04:26:52.485Z,1016.82
2018-06-24T04:27:52.503Z,1016.81
2018-06-24T04:28:52.523Z,1016.85
2018-06-24T04:29:52.541Z,1016.84
2018-06-24T04:30:52.558Z,1016.89
2018-06-24T04:31:52.587Z,1016.92
2018-06-24T04:32:52.597Z,1016.92
2018-06-24T04:33:52.617Z,1016.93
2018-06-24T04:34:52.637Z,1016.93
2018-06-24T04:35:52.668Z,1016.95
2018-06-24T04:36:52.672Z,1016.95
2018-06-24T04:37:52.693Z,1016.93
2018-06-24T04:38:52.713Z,1016.96
2018-06-24T04:39:52.730Z,1016.95
2018-06-24T04:40:52.750Z,1016.95
2018-06-24T04:41:52.775Z,1016.98
2018-06-24T04:42:52.791Z,1016.95
2018-06-24T04:43:52.805Z,1016.96
2018-06-24T04:44:52.826Z,1016.96
2018-06-24T04:45:52.847Z,1017.01
2018-06-24T04:46:52.866Z,1017.01
2018-06-24T04:47:52.882Z,1017.05
2018-06-24T04:48:52.901Z,1017.03
2018-06-24T04:49:52.922Z,1017.04
2018-06-24T04:50:52.941Z,1017.00
2018-06-24T04:51:52.962Z,1016.99
2018-06-24T04:52:52.980Z,1017.02
2018-06-24T04:53:53.004Z,1017.01
2018-06-24T04:54:53.022Z,1017.02
2018-06-24T04:55:53.039Z,1017.06
2018-06-24T04:56:53.057Z,1017.09
2018-06-24T04:57:53.078Z,1017.08
2018-06-24T04:58:53.096Z,1017.08
2018-06-24T04:59:53.117Z,1017.12
2018-06-24T05:00:53.135Z,1017.14
2018-06-24T05:01:53.160Z,1017.16
2018-06-24T05:02:53.179Z,1017.16
2018-06-24T05:03:53.194Z,1017.13
2018-06-24T05:04:53.214Z,1017.17
2018-06-24T05:05:53.232Z,1017.15
2018-06-24T05:06:53.254Z,1017.17
2018-06-24T05:07:53.272Z,1017.13
2018-06-24T05:08:53.291Z,1017.15
2018-06-24T05:09:53.314Z,1017.10
2018-06-24T05:10:53.334Z,1017.09
2018-06-24T05:11:53.354Z,1017.09
2018-06-24T05:12:53.374Z,1017.05
2018-06-24T05:13:53.397Z,1017.02
2018-06-24T05:14:53.414Z,1017.04
2018-06-24T05:15:53.434Z,1017.05
2018-06-24T05:16:53.449Z,1017.03
2018-06-24T05:17:53.475Z,1017.03
2018-06-24T05:18:53.499Z,1017.09
2018-06-24T05:19:53.527Z,1017.08
2018-06-24T05:20:53.558Z,1017.07
2018-06-24T05:21:53.560Z,1017.09
2018-06-24T05:22:53.570Z,1017.16
2018-06-24T05:23:53.592Z,1017.19
2018-06-24T05:24:53.616Z,1017.19
2018-06-24T05:25:53.637Z,1017.19
2018-06-24T05:26:53.660Z,1017.20
2018-06-24T05:27:53.672Z,1017.20
2018-06-24T05:28:53.705Z,1017.22
2018-06-24T05:29:53.719Z,1017.36
2018-06-24T05:30:53.736Z,1017.37
2018-06-24T05:31:53.753Z,1017.45
2018-06-24T05:32:53.776Z,1017.48
2018-06-24T05:33:53.799Z,1017.69
2018-06-24T05:34:53.819Z,1017.66
2018-06-24T05:35:53.839Z,1017.63
2018-06-24T05:36:53.859Z,1017.88
2018-06-24T05:37:53.896Z,1017.78
2018-06-24T05:38:53.902Z,1017.87
2018-06-24T05:39:53.926Z,1017.82
2018-06-24T05:40:53.948Z,1017.61
2018-06-24T05:41:53.968Z,1017.53
2018-06-24T05:42:53.993Z,1017.73
2018-06-24T05:43:54.012Z,1017.70
2018-06-24T05:44:54.036Z,1017.77
2018-06-24T05:45:54.060Z,1017.54
2018-06-24T05:46:54.082Z,1017.46
2018-06-24T05:47:54.108Z,1017.45
2018-06-24T05:48:54.208Z,1017.42
2018-06-24T05:49:54.153Z,1017.48
2018-06-24T05:50:54.177Z,1017.52
2018-06-24T05:51:54.197Z,1017.48
2018-06-24T05:52:54.222Z,1017.53
2018-06-24T05:53:54.241Z,1017.50
2018-06-24T05:54:54.267Z,1017.50
2018-06-24T05:55:54.290Z,1017.47
2018-06-24T05:56:54.315Z,1017.49
2018-06-24T05:57:54.334Z,1017.49
2018-06-24T05:58:54.361Z,1017.49
2018-06-24T05:59:54.386Z,1017.48
2018-06-24T06:00:54.406Z,1017.50
2018-06-24T06:01:54.426Z,1017.53
2018-06-24T06:02:54.518Z,1017.52
2018-06-24T06:03:54.470Z,1017.58
2018-06-24T06:04:54.498Z,1017.62
2018-06-24T06:05:54.520Z,1017.82
2018-06-24T06:06:54.544Z,1017.83
2018-06-24T06:07:54.562Z,1017.75
2018-06-24T06:08:54.584Z,1017.69
2018-06-24T06:09:54.605Z,1017.84
2018-06-24T06:10:54.630Z,1017.79
2018-06-24T06:11:54.680Z,1017.64
2018-06-24T06:12:54.678Z,1017.72
2018-06-24T06:13:54.703Z,1017.81
2018-06-24T06:14:54.725Z,1017.86
2018-06-24T06:15:54.748Z,1017.71
2018-06-24T06:16:54.768Z,1017.84
2018-06-24T06:17:54.794Z,1017.73
2018-06-24T06:18:54.821Z,1017.91
2018-06-24T06:19:54.839Z,1017.96
2018-06-24T06:20:54.865Z,1017.96
2018-06-24T06:21:54.889Z,1017.78
2018-06-24T06:22:54.909Z,1017.73
2018-06-24T06:23:54.939Z,1017.70
2018-06-24T06:24:54.958Z,1017.64
2018-06-24T06:25:54.983Z,1017.66
2018-06-24T06:26:55.009Z,1017.66
2018-06-24T06:27:55.033Z,1017.60
2018-06-24T06:28:55.053Z,1017.61
2018-06-24T06:29:55.081Z,1017.63
2018-06-24T06:30:55.104Z,1017.66
2018-06-24T06:31:55.127Z,1017.65
2018-06-24T06:32:55.150Z,1017.68
2018-06-24T06:33:55.173Z,1017.70
2018-06-24T06:34:55.202Z,1017.65
2018-06-24T06:35:55.220Z,1017.68
2018-06-24T06:36:55.280Z,1017.70
2018-06-24T06:37:55.269Z,1017.74
2018-06-24T06:38:55.293Z,1017.74
2018-06-24T06:39:55.312Z,1017.71
2018-06-24T06:40:55.337Z,1017.75
2018-06-24T06:41:55.362Z,1017.79
2018-06-24T06:42:55.384Z,1017.80
2018-06-24T06:43:55.404Z,1017.77
2018-06-24T06:44:55.513Z,1017.79
2018-06-24T06:45:55.455Z,1017.82
2018-06-24T06:46:55.478Z,1017.83
2018-06-24T06:47:55.502Z,1017.80
2018-06-24T06:48:55.524Z,1017.76
2018-06-24T06:49:55.545Z,1017.81
2018-06-24T06:50:55.577Z,1017.81
2018-06-24T06:51:55.606Z,1017.81
2018-06-24T06:52:55.616Z,1017.85
2018-06-24T06:53:55.636Z,1017.85
2018-06-24T06:54:55.662Z,1017.85
2018-06-24T06:55:55.682Z,1017.82
2018-06-24T06:56:55.704Z,1017.83
2018-06-24T06:57:55.795Z,1017.83
2018-06-24T06:58:55.750Z,1017.86
2018-06-24T06:59:55.772Z,1017.84
2018-06-24T07:00:55.797Z,1017.87
2018-06-24T07:01:55.819Z,1017.83
2018-06-24T07:02:55.842Z,1017.87
2018-06-24T07:03:55.862Z,1017.86
2018-06-24T07:04:55.886Z,1017.81
2018-06-24T07:05:55.908Z,1017.79
2018-06-24T07:06:55.931Z,1017.83
2018-06-24T07:07:55.955Z,1017.86
2018-06-24T07:08:55.972Z,1017.85
2018-06-24T07:09:55.996Z,1017.84
2018-06-24T07:10:56.021Z,1017.84
2018-06-24T07:11:56.038Z,1017.89
2018-06-24T07:12:56.066Z,1017.87
2018-06-24T07:13:56.084Z,1017.87
2018-06-24T07:14:56.108Z,1017.86
2018-06-24T07:15:56.139Z,1017.88
2018-06-24T07:16:56.155Z,1017.88
2018-06-24T07:17:56.174Z,1017.88
2018-06-24T07:18:56.199Z,1017.89
2018-06-24T07:19:56.220Z,1017.94
2018-06-24T07:20:56.241Z,1017.95
2018-06-24T07:21:56.265Z,1017.95
2018-06-24T07:22:56.287Z,1017.99
2018-06-24T07:23:56.308Z,1017.99
2018-06-24T07:24:56.330Z,1018.02
2018-06-24T07:25:56.353Z,1018.02
2018-06-24T07:26:56.376Z,1018.05
2018-06-24T07:27:56.397Z,1018.04
2018-06-24T07:28:56.420Z,1017.98
2018-06-24T07:29:56.441Z,1018.03
2018-06-24T07:30:56.467Z,1017.99
2018-06-24T07:31:56.486Z,1017.97
2018-06-24T07:32:56.514Z,1017.95
2018-06-24T07:33:56.531Z,1017.99
2018-06-24T07:34:56.555Z,1017.98
2018-06-24T07:35:56.576Z,1017.94
2018-06-24T07:36:56.604Z,1017.97
2018-06-24T07:37:56.622Z,1017.97
2018-06-24T07:38:56.646Z,1017.98
2018-06-24T07:39:56.669Z,1017.98
2018-06-24T07:40:56.691Z,1018.01
2018-06-24T07:41:56.715Z,1018.01
2018-06-24T07:42:56.737Z,1018.04
2018-06-24T07:43:56.755Z,1018.12
2018-06-24T07:44:56.782Z,1018.09
2018-06-24T07:45:56.803Z,1018.11
2018-06-24T07:46:56.825Z,1018.10
2018-06-24T07:47:56.855Z,1018.15
2018-06-24T07:48:56.870Z,1018.07
2018-06-24T07:49:56.893Z,1018.07
2018-06-24T07:50:56.917Z,1018.06
2018-06-24T07:51:56.938Z,1018.07
2018-06-24T07:52:56.963Z,1018.12
2018-06-24T07:53:56.983Z,1018.09
2018-06-24T07:54:57.009Z,1018.10
2018-06-24T07:55:57.031Z,1018.11
2018-06-24T07:56:57.056Z,1018.11
2018-06-24T07:57:57.079Z,1018.10
2018-06-24T07:58:57.102Z,1018.08
2018-06-24T07:59:57.122Z,1018.03
2018-06-24T08:00:57.144Z,1018.05
2018-06-24T08:01:57.167Z,1018.01
2018-06-24T08:02:57.192Z,1018.06
2018-06-24T08:03:57.215Z,1018.02
2018-06-24T08:04:57.240Z,1018.06
2018-06-24T08:05:57.261Z,1018.05
2018-06-24T08:06:57.286Z,1018.10
2018-06-24T08:07:57.308Z,1018.12
2018-06-24T08:08:57.329Z,1018.08
2018-06-24T08:09:57.354Z,1018.10
2018-06-24T08:10:57.375Z,1018.07
2018-06-24T08:11:57.847Z,1018.01
2018-06-24T08:12:57.424Z,1018.03
2018-06-24T08:13:57.452Z,1017.98
2018-06-24T08:14:57.467Z,1017.97
2018-06-24T08:15:57.490Z,1017.93
2018-06-24T08:16:57.516Z,1017.89
2018-06-24T08:17:57.539Z,1017.93
2018-06-24T08:18:57.560Z,1017.97
2018-06-24T08:19:57.585Z,1017.96
2018-06-24T08:20:57.603Z,1017.92
2018-06-24T08:21:57.630Z,1017.93
2018-06-24T08:22:57.651Z,1017.98
2018-06-24T08:23:57.675Z,1017.96
2018-06-24T08:24:57.698Z,1017.94
2018-06-24T08:25:57.721Z,1017.94
2018-06-24T08:26:57.749Z,1017.94
2018-06-24T08:27:57.769Z,1017.90
2018-06-24T08:28:57.790Z,1017.92
2018-06-24T08:29:57.811Z,1017.95
2018-06-24T08:30:57.838Z,1017.97
2018-06-24T08:31:57.865Z,1017.93
2018-06-24T08:32:57.882Z,1017.98
2018-06-24T08:33:57.905Z,1018.03
2018-06-24T08:34:57.929Z,1017.99
2018-06-24T08:35:57.950Z,1017.96
2018-06-24T08:36:57.982Z,1018.03
2018-06-24T08:37:57.996Z,1018.06
2018-06-24T08:38:58.054Z,1018.07
2018-06-24T08:39:58.043Z,1018.03
2018-06-24T08:40:58.066Z,1018.08
2018-06-24T08:41:58.091Z,1018.10
2018-06-24T08:42:58.113Z,1018.10
2018-06-24T08:43:58.137Z,1018.15
2018-06-24T08:44:58.163Z,1018.13
2018-06-24T08:45:58.183Z,1018.14
2018-06-24T08:46:58.207Z,1018.16
2018-06-24T08:47:58.230Z,1018.17
2018-06-24T08:48:58.252Z,1018.16
2018-06-24T08:49:58.279Z,1018.13
2018-06-24T08:50:58.301Z,1018.14
2018-06-24T08:51:58.327Z,1018.12
2018-06-24T08:52:58.346Z,1018.14
2018-06-24T08:53:58.369Z,1018.12
2018-06-24T08:54:58.393Z,1018.13
2018-06-24T08:55:58.414Z,1018.14
2018-06-24T08:56:58.441Z,1018.20
2018-06-24T08:57:58.464Z,1018.22
2018-06-24T08:58:58.488Z,1018.23
2018-06-24T08:59:58.509Z,1018.21
2018-06-24T09:00:58.534Z,1018.18
2018-06-24T09:01:58.558Z,1018.19
2018-06-24T09:02:58.582Z,1018.18
2018-06-24T09:03:58.601Z,1018.17
2018-06-24T09:04:58.629Z,1018.20
2018-06-24T09:05:58.651Z,1018.21
2018-06-24T09:06:58.672Z,1018.18
2018-06-24T09:07:58.711Z,1018.18
2018-06-24T09:08:58.719Z,1018.25
2018-06-24T09:09:58.750Z,1018.22
2018-06-24T09:10:58.770Z,1018.23
2018-06-24T09:11:58.792Z,1018.22
2018-06-24T09:12:58.815Z,1018.30
2018-06-24T09:13:58.891Z,1018.25
2018-06-24T09:14:58.865Z,1018.29
2018-06-24T09:15:59.036Z,1018.26
2018-06-24T09:16:58.913Z,1018.29
2018-06-24T09:17:58.931Z,1018.21
2018-06-24T09:18:58.959Z,1018.25
2018-06-24T09:19:58.982Z,1018.24
2018-06-24T09:20:59.005Z,1018.25
2018-06-24T09:21:59.036Z,1018.33
2018-06-24T09:22:59.051Z,1018.41
2018-06-24T09:23:59.077Z,1018.38
2018-06-24T09:24:59.097Z,1018.25
2018-06-24T09:25:59.125Z,1018.24
2018-06-24T09:26:59.155Z,1018.19
2018-06-24T09:27:59.169Z,1018.24
2018-06-24T09:28:59.192Z,1018.27
2018-06-24T09:29:59.216Z,1018.25
2018-06-24T09:30:59.243Z,1018.25
2018-06-24T09:31:59.264Z,1018.28
2018-06-24T09:32:59.285Z,1018.34
2018-06-24T09:33:59.314Z,1018.33
2018-06-24T09:34:59.336Z,1018.31
2018-06-24T09:35:59.359Z,1018.31
2018-06-24T09:36:59.384Z,1018.28
2018-06-24T09:37:59.402Z,1018.29
2018-06-24T09:38:59.431Z,1018.32
2018-06-24T09:39:59.450Z,1018.25
2018-06-24T09:40:59.521Z,1018.27
2018-06-24T09:41:59.500Z,1018.24
2018-06-24T09:42:59.526Z,1018.26
2018-06-24T09:43:59.545Z,1018.28
2018-06-24T09:44:59.573Z,1018.27
2018-06-24T09:45:59.596Z,1018.28
2018-06-24T09:46:59.618Z,1018.27
2018-06-24T09:47:59.641Z,1018.36
2018-06-24T09:48:59.666Z,1018.32
2018-06-24T09:49:59.693Z,1018.34
2018-06-24T09:50:59.712Z,1018.37
2018-06-24T09:51:59.737Z,1018.34
2018-06-24T09:52:59.761Z,1018.32
2018-06-24T09:53:59.786Z,1018.31
2018-06-24T09:54:59.808Z,1018.32
2018-06-24T09:55:59.832Z,1018.31
2018-06-24T09:56:59.852Z,1018.30
2018-06-24T09:57:59.881Z,1018.28
2018-06-24T09:58:59.904Z,1018.24
2018-06-24T09:59:59.927Z,1018.30
2018-06-24T10:00:59.950Z,1018.28
2018-06-24T10:01:59.976Z,1018.20
2018-06-24T10:03:00.001Z,1018.23
2018-06-24T10:04:00.027Z,1018.19
2018-06-24T10:05:00.056Z,1018.22
2018-06-24T10:06:00.072Z,1018.22
2018-06-24T10:07:00.098Z,1018.28
2018-06-24T10:08:00.119Z,1018.26
2018-06-24T10:09:00.140Z,1018.26
2018-06-24T10:10:00.169Z,1018.20
2018-06-24T10:11:00.253Z,1018.20
2018-06-24T10:12:00.212Z,1018.14
2018-06-24T10:13:00.236Z,1018.24
2018-06-24T10:14:00.261Z,1018.22
2018-06-24T10:15:00.285Z,1018.26
2018-06-24T10:16:00.307Z,1018.26
2018-06-24T10:17:00.330Z,1018.25
2018-06-24T10:18:00.356Z,1018.27
2018-06-24T10:19:00.382Z,1018.29
2018-06-24T10:20:00.399Z,1018.26
2018-06-24T10:21:00.428Z,1018.24
2018-06-24T10:22:00.449Z,1018.24
2018-06-24T10:23:00.473Z,1018.19
2018-06-24T10:24:00.498Z,1018.18
2018-06-24T10:25:00.520Z,1018.23
2018-06-24T10:26:00.596Z,1018.21
2018-06-24T10:27:00.574Z,1018.28
2018-06-24T10:28:00.593Z,1018.22
2018-06-24T10:29:00.619Z,1018.22
2018-06-24T10:30:00.644Z,1018.31
2018-06-24T10:31:00.666Z,1018.25
2018-06-24T10:32:00.698Z,1018.25
2018-06-24T10:33:00.717Z,1018.24
2018-06-24T10:34:00.738Z,1018.23
2018-06-24T10:35:00.765Z,1018.25
2018-06-24T10:36:00.785Z,1018.24
2018-06-24T10:37:00.813Z,1018.25
2018-06-24T10:38:00.836Z,1018.19
2018-06-24T10:39:00.858Z,1018.21
2018-06-24T10:40:00.878Z,1018.26
2018-06-24T10:41:00.905Z,1018.22
2018-06-24T10:42:00.929Z,1018.23
2018-06-24T10:43:00.957Z,1018.25
2018-06-24T10:44:00.978Z,1018.22
2018-06-24T10:45:01.003Z,1018.21
2018-06-24T10:46:01.029Z,1018.18
2018-06-24T10:47:01.053Z,1018.19
2018-06-24T10:48:01.074Z,1018.24
2018-06-24T10:49:01.099Z,1018.20
2018-06-24T10:50:01.124Z,1018.19
2018-06-24T10:51:01.149Z,1018.22
2018-06-24T10:52:01.173Z,1018.17
2018-06-24T10:53:01.224Z,1018.23
2018-06-24T10:54:01.218Z,1018.23
2018-06-24T10:55:01.250Z,1018.24
2018-06-24T10:56:01.268Z,1018.24
2018-06-24T10:57:01.293Z,1018.25
2018-06-24T10:58:01.317Z,1018.25
2018-06-24T10:59:01.343Z,1018.22
2018-06-24T11:00:01.371Z,1018.23
2018-06-24T11:01:01.392Z,1018.17
2018-06-24T11:02:01.439Z,1018.22
2018-06-24T11:03:01.442Z,1018.17
2018-06-24T11:04:01.462Z,1018.21
2018-06-24T11:05:01.487Z,1018.18
2018-06-24T11:06:01.513Z,1018.16
2018-06-24T11:07:01.539Z,1018.16
2018-06-24T11:08:01.562Z,1018.13
2018-06-24T11:09:01.585Z,1018.18
2018-06-24T11:10:01.608Z,1018.16
2018-06-24T11:11:01.638Z,1018.13
2018-06-24T11:12:01.659Z,1018.06
2018-06-24T11:13:01.683Z,1018.11
2018-06-24T11:14:01.706Z,1018.11
2018-06-24T11:15:01.735Z,1018.10
2018-06-24T11:16:01.760Z,1018.13
2018-06-24T11:17:01.778Z,1018.12
2018-06-24T11:18:01.805Z,1018.15
2018-06-24T11:19:01.828Z,1018.06
2018-06-24T11:20:01.855Z,1018.13
2018-06-24T11:21:01.878Z,1018.13
2018-06-24T11:22:01.902Z,1018.12
2018-06-24T11:23:01.926Z,1018.09
2018-06-24T11:24:01.952Z,1018.09
2018-06-24T11:25:01.973Z,1018.07
2018-06-24T11:26:02.002Z,1018.06
2018-06-24T11:27:02.026Z,1018.02
2018-06-24T11:28:02.045Z,1018.01
2018-06-24T11:29:02.075Z,1018.03
2018-06-24T11:30:02.095Z,1017.98
2018-06-24T11:31:02.135Z,1018.02
2018-06-24T11:32:02.144Z,1017.98
2018-06-24T11:33:02.169Z,1018.01
2018-06-24T11:34:02.193Z,1018.00
2018-06-24T11:35:02.217Z,1018.04
2018-06-24T11:36:02.244Z,1018.01
2018-06-24T11:37:02.322Z,1018.00
2018-06-24T11:38:02.291Z,1018.00
2018-06-24T11:39:02.315Z,1017.95
2018-06-24T11:40:02.338Z,1017.94
2018-06-24T11:41:02.362Z,1017.91
2018-06-24T11:42:02.387Z,1017.87
2018-06-24T11:43:02.414Z,1017.84
2018-06-24T11:44:02.435Z,1017.86
2018-06-24T11:45:02.461Z,1017.85
2018-06-24T11:46:02.483Z,1017.91
2018-06-24T11:47:02.509Z,1017.92
2018-06-24T11:48:02.531Z,1017.92
2018-06-24T11:49:02.556Z,1017.90
2018-06-24T11:50:02.643Z,1017.89
2018-06-24T11:51:02.604Z,1017.93
2018-06-24T11:52:02.631Z,1017.91
2018-06-24T11:53:02.656Z,1017.91
2018-06-24T11:54:02.679Z,1017.91
2018-06-24T11:55:02.699Z,1017.88
2018-06-24T11:56:02.738Z,1017.82
2018-06-24T11:57:02.788Z,1017.87
2018-06-24T11:58:02.795Z,1017.89
2018-06-24T11:59:02.802Z,1017.87
2018-06-24T12:00:02.824Z,1017.84
2018-06-24T12:01:02.851Z,1017.89
2018-06-24T12:02:02.938Z,1017.85
2018-06-24T12:03:02.899Z,1017.84
2018-06-24T12:04:02.965Z,1017.83
2018-06-24T12:05:02.956Z,1017.79
2018-06-24T12:06:02.975Z,1017.79
2018-06-24T12:07:02.998Z,1017.80
2018-06-24T12:08:03.021Z,1017.79
2018-06-24T12:09:03.044Z,1017.82
2018-06-24T12:10:03.076Z,1017.84
2018-06-24T12:11:03.098Z,1017.83
2018-06-24T12:12:03.121Z,1017.82
2018-06-24T12:13:03.152Z,1017.81
2018-06-24T12:14:03.171Z,1017.76
2018-06-24T12:15:03.198Z,1017.73
2018-06-24T12:16:03.218Z,1017.75
2018-06-24T12:17:03.245Z,1017.75
2018-06-24T12:18:03.270Z,1017.72
2018-06-24T12:19:03.291Z,1017.80
2018-06-24T12:20:03.320Z,1017.77
2018-06-24T12:21:03.345Z,1017.79
2018-06-24T12:22:03.372Z,1017.79
2018-06-24T12:23:03.394Z,1017.75
2018-06-24T12:24:03.418Z,1017.77
2018-06-24T12:25:03.440Z,1017.73
2018-06-24T12:26:03.466Z,1017.75
2018-06-24T12:27:03.488Z,1017.71
2018-06-24T12:28:03.515Z,1017.69
2018-06-24T12:29:03.540Z,1017.68
2018-06-24T12:30:03.576Z,1017.70
2018-06-24T12:31:03.591Z,1017.65
2018-06-24T12:32:03.610Z,1017.69
2018-06-24T12:33:03.635Z,1017.69
2018-06-24T12:34:03.662Z,1017.69
2018-06-24T12:35:03.688Z,1017.66
2018-06-24T12:36:03.710Z,1017.63
2018-06-24T12:37:03.737Z,1017.62
2018-06-24T12:38:03.764Z,1017.65
2018-06-24T12:39:03.786Z,1017.55
2018-06-24T12:40:03.810Z,1017.61
2018-06-24T12:41:03.838Z,1017.63
2018-06-24T12:42:03.863Z,1017.62
2018-06-24T12:43:03.930Z,1017.64
2018-06-24T12:44:03.912Z,1017.62
2018-06-24T12:45:03.931Z,1017.60
2018-06-24T12:46:03.956Z,1017.60
2018-06-24T12:47:03.984Z,1017.62
2018-06-24T12:48:04.001Z,1017.58
2018-06-24T12:49:04.029Z,1017.59
2018-06-24T12:50:04.055Z,1017.61
2018-06-24T12:51:04.078Z,1017.60
2018-06-24T12:52:04.103Z,1017.59